sensor_id;sensor_type;location;lat;lon;timestamp;pressure;altitude;pressure_sealevel;temperature;humidity
62592;BME280;48659;41.622;2.276;2023-05-10T00:00:42;100064.32;;;14.82;61.49
62592;BME280;48659;41.622;2.276;2023-05-10T00:03:10;100058.78;;;15.57;59.70
62592;BME280;48659;41.622;2.276;2023-05-10T00:05:37;100054.64;;;15.84;59.85
62592;BME280;48659;41.622;2.276;2023-05-10T00:08:04;100051.03;;;16.82;57.72
62592;BME280;48659;41.622;2.276;2023-05-10T00:10:32;100050.85;;;16.52;58.34
62592;BME280;48659;41.622;2.276;2023-05-10T00:13:00;100045.60;;;16.44;57.44
62592;BME280;48659;41.622;2.276;2023-05-10T00:15:28;100045.87;;;15.63;59.05
62592;BME280;48659;41.622;2.276;2023-05-10T00:17:56;100044.56;;;15.02;61.12
62592;BME280;48659;41.622;2.276;2023-05-10T00:20:24;100036.34;;;14.50;62.71
62592;BME280;48659;41.622;2.276;2023-05-10T00:22:51;100035.62;;;14.39;64.30
62592;BME280;48659;41.622;2.276;2023-05-10T00:25:19;100033.58;;;14.70;64.35
62592;BME280;48659;41.622;2.276;2023-05-10T00:27:46;100028.84;;;14.53;64.78
62592;BME280;48659;41.622;2.276;2023-05-10T00:30:13;100027.96;;;14.32;65.84
62592;BME280;48659;41.622;2.276;2023-05-10T00:32:41;100028.52;;;15.47;62.09
62592;BME280;48659;41.622;2.276;2023-05-10T00:35:09;100019.93;;;16.11;59.96
62592;BME280;48659;41.622;2.276;2023-05-10T00:37:36;100015.44;;;16.21;59.68
62592;BME280;48659;41.622;2.276;2023-05-10T00:40:04;100017.56;;;15.50;60.85
62592;BME280;48659;41.622;2.276;2023-05-10T00:42:32;100015.82;;;15.45;60.78
62592;BME280;48659;41.622;2.276;2023-05-10T00:45:00;100015.50;;;15.40;61.09
62592;BME280;48659;41.622;2.276;2023-05-10T00:47:27;100012.29;;;16.04;61.05
62592;BME280;48659;41.622;2.276;2023-05-10T00:49:55;100010.64;;;13.84;66.33
62592;BME280;48659;41.622;2.276;2023-05-10T00:52:22;100011.39;;;15.24;62.04
62592;BME280;48659;41.622;2.276;2023-05-10T00:54:51;99998.03;;;16.63;58.41
62592;BME280;48659;41.622;2.276;2023-05-10T00:57:18;99992.82;;;16.70;57.53
62592;BME280;48659;41.622;2.276;2023-05-10T00:59:46;99989.82;;;17.09;56.06
62592;BME280;48659;41.622;2.276;2023-05-10T01:02:14;99985.48;;;16.03;58.01
62592;BME280;48659;41.622;2.276;2023-05-10T01:04:43;99983.04;;;16.11;58.53
62592;BME280;48659;41.622;2.276;2023-05-10T01:07:10;99979.98;;;16.33;58.60
62592;BME280;48659;41.622;2.276;2023-05-10T01:09:37;99974.11;;;16.86;56.27
62592;BME280;48659;41.622;2.276;2023-05-10T01:12:06;99969.45;;;17.03;55.27
62592;BME280;48659;41.622;2.276;2023-05-10T01:14:34;99972.11;;;17.85;54.44
62592;BME280;48659;41.622;2.276;2023-05-10T01:17:02;99972.67;;;17.98;53.93
62592;BME280;48659;41.622;2.276;2023-05-10T01:19:31;99973.76;;;17.48;54.34
62592;BME280;48659;41.622;2.276;2023-05-10T01:22:07;99975.54;;;15.93;58.00
62592;BME280;48659;41.622;2.276;2023-05-10T01:24:59;99971.62;;;17.43;54.80
62592;BME280;48659;41.622;2.276;2023-05-10T01:30:02;99973.04;;;18.15;53.77
62592;BME280;48659;41.622;2.276;2023-05-10T01:32:36;99968.86;;;17.83;53.57
62592;BME280;48659;41.622;2.276;2023-05-10T01:35:09;99973.22;;;17.00;55.92
62592;BME280;48659;41.622;2.276;2023-05-10T01:37:42;99969.84;;;15.93;58.85
62592;BME280;48659;41.622;2.276;2023-05-10T01:40:18;99970.36;;;16.75;58.05
62592;BME280;48659;41.622;2.276;2023-05-10T01:42:53;99968.84;;;17.32;56.84
62592;BME280;48659;41.622;2.276;2023-05-10T01:45:30;99966.52;;;17.45;55.65
62592;BME280;48659;41.622;2.276;2023-05-10T01:48:06;99960.00;;;17.69;55.04
62592;BME280;48659;41.622;2.276;2023-05-10T01:50:36;99957.63;;;18.01;54.61
62592;BME280;48659;41.622;2.276;2023-05-10T01:53:06;99956.77;;;18.09;54.00
62592;BME280;48659;41.622;2.276;2023-05-10T01:55:39;99957.43;;;17.20;55.29
62592;BME280;48659;41.622;2.276;2023-05-10T01:58:20;99960.93;;;17.64;55.04
62592;BME280;48659;41.622;2.276;2023-05-10T02:00:50;99961.35;;;17.55;55.06
62592;BME280;48659;41.622;2.276;2023-05-10T02:03:22;99965.43;;;17.43;55.77
62592;BME280;48659;41.622;2.276;2023-05-10T02:05:52;99960.61;;;17.88;55.10
62592;BME280;48659;41.622;2.276;2023-05-10T02:08:21;99961.60;;;18.51;54.23
62592;BME280;48659;41.622;2.276;2023-05-10T02:10:51;99961.73;;;17.68;55.57
62592;BME280;48659;41.622;2.276;2023-05-10T02:13:19;99960.85;;;17.41;56.18
62592;BME280;48659;41.622;2.276;2023-05-10T02:15:49;99954.98;;;17.89;55.30
62592;BME280;48659;41.622;2.276;2023-05-10T02:18:18;99952.74;;;18.37;54.39
62592;BME280;48659;41.622;2.276;2023-05-10T02:20:46;99951.08;;;18.38;53.75
62592;BME280;48659;41.622;2.276;2023-05-10T02:23:14;99950.20;;;18.54;53.07
62592;BME280;48659;41.622;2.276;2023-05-10T02:25:44;99945.41;;;18.48;52.50
62592;BME280;48659;41.622;2.276;2023-05-10T02:28:13;99946.32;;;18.29;52.63
62592;BME280;48659;41.622;2.276;2023-05-10T02:30:49;99944.90;;;18.34;52.53
62592;BME280;48659;41.622;2.276;2023-05-10T02:33:18;99942.14;;;18.49;52.29
62592;BME280;48659;41.622;2.276;2023-05-10T02:35:47;99940.28;;;18.79;51.79
62592;BME280;48659;41.622;2.276;2023-05-10T02:38:16;99937.04;;;19.05;51.41
62592;BME280;48659;41.622;2.276;2023-05-10T02:40:52;99932.36;;;18.66;52.28
62592;BME280;48659;41.622;2.276;2023-05-10T02:43:23;99930.56;;;18.63;52.30
62592;BME280;48659;41.622;2.276;2023-05-10T02:45:51;99933.23;;;18.66;52.48
62592;BME280;48659;41.622;2.276;2023-05-10T02:48:19;99938.23;;;18.58;52.30
62592;BME280;48659;41.622;2.276;2023-05-10T02:50:53;99945.57;;;17.48;54.36
62592;BME280;48659;41.622;2.276;2023-05-10T02:53:23;99946.20;;;15.27;60.70
62592;BME280;48659;41.622;2.276;2023-05-10T02:55:58;99952.27;;;14.29;64.63
62592;BME280;48659;41.622;2.276;2023-05-10T02:58:27;99946.88;;;14.89;63.31
62592;BME280;48659;41.622;2.276;2023-05-10T03:00:54;99949.30;;;13.74;69.88
62592;BME280;48659;41.622;2.276;2023-05-10T03:03:21;99949.20;;;12.89;73.83
62592;BME280;48659;41.622;2.276;2023-05-10T03:05:49;99948.21;;;14.35;69.53
62592;BME280;48659;41.622;2.276;2023-05-10T03:08:17;99943.16;;;15.36;64.73
62592;BME280;48659;41.622;2.276;2023-05-10T03:10:54;99940.12;;;16.99;60.68
62592;BME280;48659;41.622;2.276;2023-05-10T03:13:31;99934.78;;;17.67;57.60
62592;BME280;48659;41.622;2.276;2023-05-10T03:16:06;99933.45;;;18.00;56.47
62592;BME280;48659;41.622;2.276;2023-05-10T03:18:42;99932.07;;;17.36;56.47
62592;BME280;48659;41.622;2.276;2023-05-10T03:21:12;99930.69;;;17.54;55.55
62592;BME280;48659;41.622;2.276;2023-05-10T03:23:51;99929.39;;;17.62;55.53
62592;BME280;48659;41.622;2.276;2023-05-10T03:26:26;99929.54;;;17.11;58.08
62592;BME280;48659;41.622;2.276;2023-05-10T03:28:53;99927.40;;;17.23;57.95
62592;BME280;48659;41.622;2.276;2023-05-10T03:31:21;99922.67;;;17.21;57.07
62592;BME280;48659;41.622;2.276;2023-05-10T03:33:49;99921.43;;;17.89;56.96
62592;BME280;48659;41.622;2.276;2023-05-10T03:36:17;99920.82;;;17.77;56.08
62592;BME280;48659;41.622;2.276;2023-05-10T03:38:48;99926.11;;;17.85;55.44
62592;BME280;48659;41.622;2.276;2023-05-10T03:41:16;99929.60;;;17.50;56.92
62592;BME280;48659;41.622;2.276;2023-05-10T03:43:47;99931.49;;;17.66;55.80
62592;BME280;48659;41.622;2.276;2023-05-10T03:46:14;99935.82;;;18.16;55.06
62592;BME280;48659;41.622;2.276;2023-05-10T03:48:42;99935.19;;;18.28;54.48
62592;BME280;48659;41.622;2.276;2023-05-10T03:51:09;99930.35;;;18.56;53.97
62592;BME280;48659;41.622;2.276;2023-05-10T03:53:36;99931.02;;;18.06;54.58
62592;BME280;48659;41.622;2.276;2023-05-10T03:56:04;99924.11;;;18.33;53.96
62592;BME280;48659;41.622;2.276;2023-05-10T03:58:32;99925.22;;;17.73;55.13
62592;BME280;48659;41.622;2.276;2023-05-10T04:00:59;99925.51;;;17.79;54.97
62592;BME280;48659;41.622;2.276;2023-05-10T04:03:26;99924.85;;;18.21;54.25
62592;BME280;48659;41.622;2.276;2023-05-10T04:05:59;99925.46;;;18.56;53.58
62592;BME280;48659;41.622;2.276;2023-05-10T04:08:26;99927.27;;;18.68;53.86
62592;BME280;48659;41.622;2.276;2023-05-10T04:10:54;99927.85;;;18.09;54.37
62592;BME280;48659;41.622;2.276;2023-05-10T04:13:21;99923.70;;;18.41;53.96
62592;BME280;48659;41.622;2.276;2023-05-10T04:15:49;99927.46;;;17.67;55.30
62592;BME280;48659;41.622;2.276;2023-05-10T04:18:18;99928.15;;;17.51;55.34
62592;BME280;48659;41.622;2.276;2023-05-10T04:20:46;99930.43;;;18.13;54.48
62592;BME280;48659;41.622;2.276;2023-05-10T04:23:13;99926.58;;;18.37;54.58
62592;BME280;48659;41.622;2.276;2023-05-10T04:25:49;99924.38;;;17.20;57.21
62592;BME280;48659;41.622;2.276;2023-05-10T04:28:16;99921.92;;;18.07;55.31
62592;BME280;48659;41.622;2.276;2023-05-10T04:30:50;99920.53;;;16.40;59.00
62592;BME280;48659;41.622;2.276;2023-05-10T04:33:17;99911.14;;;17.69;56.04
62592;BME280;48659;41.622;2.276;2023-05-10T04:35:44;99910.32;;;18.18;55.38
62592;BME280;48659;41.622;2.276;2023-05-10T04:38:11;99907.67;;;18.23;55.19
62592;BME280;48659;41.622;2.276;2023-05-10T04:40:38;99905.58;;;17.56;55.20
62592;BME280;48659;41.622;2.276;2023-05-10T04:43:05;99908.39;;;17.78;54.44
62592;BME280;48659;41.622;2.276;2023-05-10T04:45:33;99904.21;;;18.08;53.38
62592;BME280;48659;41.622;2.276;2023-05-10T04:48:01;99907.67;;;15.38;60.05
62592;BME280;48659;41.622;2.276;2023-05-10T04:50:28;99905.90;;;15.13;60.49
62592;BME280;48659;41.622;2.276;2023-05-10T04:52:56;99902.94;;;16.45;58.63
62592;BME280;48659;41.622;2.276;2023-05-10T04:55:23;99899.00;;;16.64;57.13
62592;BME280;48659;41.622;2.276;2023-05-10T04:57:51;99896.76;;;15.93;59.57
62592;BME280;48659;41.622;2.276;2023-05-10T05:00:19;99902.65;;;16.64;57.73
62592;BME280;48659;41.622;2.276;2023-05-10T05:02:49;99898.62;;;16.26;58.58
62592;BME280;48659;41.622;2.276;2023-05-10T05:05:17;99904.27;;;15.89;59.64
62592;BME280;48659;41.622;2.276;2023-05-10T05:07:44;99905.82;;;16.04;58.49
62592;BME280;48659;41.622;2.276;2023-05-10T05:10:11;99908.40;;;14.87;60.51
62592;BME280;48659;41.622;2.276;2023-05-10T05:12:38;99899.13;;;15.32;59.91
62592;BME280;48659;41.622;2.276;2023-05-10T05:15:06;99897.89;;;14.54;60.50
62592;BME280;48659;41.622;2.276;2023-05-10T05:17:34;99898.81;;;15.13;60.70
62592;BME280;48659;41.622;2.276;2023-05-10T05:20:03;99899.69;;;13.60;63.41
62592;BME280;48659;41.622;2.276;2023-05-10T05:22:31;99897.65;;;15.02;59.65
62592;BME280;48659;41.622;2.276;2023-05-10T05:24:58;99899.65;;;14.22;61.52
62592;BME280;48659;41.622;2.276;2023-05-10T05:27:25;99904.73;;;14.76;59.41
62592;BME280;48659;41.622;2.276;2023-05-10T05:29:53;99898.77;;;13.61;62.73
62592;BME280;48659;41.622;2.276;2023-05-10T05:32:21;99903.47;;;13.20;65.48
62592;BME280;48659;41.622;2.276;2023-05-10T05:34:49;99906.65;;;14.70;61.78
62592;BME280;48659;41.622;2.276;2023-05-10T05:37:17;99909.55;;;13.73;62.87
62592;BME280;48659;41.622;2.276;2023-05-10T05:39:45;99907.83;;;14.47;61.23
62592;BME280;48659;41.622;2.276;2023-05-10T05:42:13;99907.00;;;14.81;59.49
62592;BME280;48659;41.622;2.276;2023-05-10T05:44:47;99909.72;;;15.71;58.51
62592;BME280;48659;41.622;2.276;2023-05-10T05:47:15;99911.08;;;14.79;60.59
62592;BME280;48659;41.622;2.276;2023-05-10T05:49:42;99908.69;;;16.10;56.46
62592;BME280;48659;41.622;2.276;2023-05-10T05:52:09;99902.00;;;15.46;56.82
62592;BME280;48659;41.622;2.276;2023-05-10T05:54:37;99904.59;;;16.32;54.25
62592;BME280;48659;41.622;2.276;2023-05-10T05:57:04;99905.51;;;18.04;51.53
62592;BME280;48659;41.622;2.276;2023-05-10T05:59:33;99909.36;;;17.89;50.31
62592;BME280;48659;41.622;2.276;2023-05-10T06:02:00;99911.61;;;18.42;47.75
62592;BME280;48659;41.622;2.276;2023-05-10T06:04:27;99919.04;;;19.21;45.63
62592;BME280;48659;41.622;2.276;2023-05-10T06:06:54;99925.79;;;20.01;43.85
62592;BME280;48659;41.622;2.276;2023-05-10T06:09:22;99937.65;;;19.49;43.70
62592;BME280;48659;41.622;2.276;2023-05-10T06:11:49;99939.11;;;16.57;48.06
62592;BME280;48659;41.622;2.276;2023-05-10T06:14:20;99937.34;;;18.54;44.44
62592;BME280;48659;41.622;2.276;2023-05-10T06:16:48;99933.26;;;17.70;45.78
62592;BME280;48659;41.622;2.276;2023-05-10T06:19:15;99928.43;;;18.25;46.26
62592;BME280;48659;41.622;2.276;2023-05-10T06:21:43;99927.08;;;17.18;48.42
62592;BME280;48659;41.622;2.276;2023-05-10T06:24:10;99924.60;;;17.84;47.12
62592;BME280;48659;41.622;2.276;2023-05-10T06:26:38;99926.89;;;17.34;47.28
62592;BME280;48659;41.622;2.276;2023-05-10T06:29:05;99924.59;;;18.43;46.16
62592;BME280;48659;41.622;2.276;2023-05-10T06:31:33;99925.55;;;18.86;45.27
62592;BME280;48659;41.622;2.276;2023-05-10T06:34:02;99928.07;;;19.09;43.61
62592;BME280;48659;41.622;2.276;2023-05-10T06:36:29;99923.59;;;19.73;42.98
62592;BME280;48659;41.622;2.276;2023-05-10T06:38:56;99920.65;;;19.22;42.89
62592;BME280;48659;41.622;2.276;2023-05-10T06:41:22;99913.12;;;19.81;43.00
62592;BME280;48659;41.622;2.276;2023-05-10T06:43:49;99918.43;;;19.37;44.29
62592;BME280;48659;41.622;2.276;2023-05-10T06:46:18;99918.80;;;19.46;44.07
62592;BME280;48659;41.622;2.276;2023-05-10T06:48:46;99921.32;;;18.84;45.24
62592;BME280;48659;41.622;2.276;2023-05-10T06:51:13;99926.51;;;19.08;44.82
62592;BME280;48659;41.622;2.276;2023-05-10T06:53:41;99927.71;;;19.02;46.17
62592;BME280;48659;41.622;2.276;2023-05-10T06:56:08;99930.53;;;19.91;44.28
62592;BME280;48659;41.622;2.276;2023-05-10T06:58:37;99924.52;;;20.01;44.32
62592;BME280;48659;41.622;2.276;2023-05-10T07:01:05;99923.95;;;20.86;41.23
62592;BME280;48659;41.622;2.276;2023-05-10T07:03:33;99936.73;;;19.08;44.36
62592;BME280;48659;41.622;2.276;2023-05-10T07:06:01;99939.64;;;19.11;44.72
62592;BME280;48659;41.622;2.276;2023-05-10T07:08:28;99936.28;;;19.18;45.04
62592;BME280;48659;41.622;2.276;2023-05-10T07:11:00;99935.09;;;18.67;45.85
62592;BME280;48659;41.622;2.276;2023-05-10T07:13:28;99931.62;;;16.76;49.55
62592;BME280;48659;41.622;2.276;2023-05-10T07:15:55;99927.13;;;17.33;48.66
62592;BME280;48659;41.622;2.276;2023-05-10T07:18:22;99924.53;;;18.73;45.01
62592;BME280;48659;41.622;2.276;2023-05-10T07:20:49;99923.71;;;18.40;45.34
62592;BME280;48659;41.622;2.276;2023-05-10T07:23:17;99916.69;;;19.68;43.00
62592;BME280;48659;41.622;2.276;2023-05-10T07:25:46;99922.54;;;19.32;43.39
62592;BME280;48659;41.622;2.276;2023-05-10T07:28:14;99925.73;;;19.29;45.41
62592;BME280;48659;41.622;2.276;2023-05-10T07:30:49;99925.99;;;18.09;48.02
62592;BME280;48659;41.622;2.276;2023-05-10T07:33:17;99924.42;;;17.48;51.25
62592;BME280;48659;41.622;2.276;2023-05-10T07:35:52;99934.45;;;16.53;57.15
62592;BME280;48659;41.622;2.276;2023-05-10T07:38:19;99935.11;;;16.83;56.94
62592;BME280;48659;41.622;2.276;2023-05-10T07:40:52;99935.30;;;16.46;59.09
62592;BME280;48659;41.622;2.276;2023-05-10T07:43:19;99935.87;;;16.73;58.05
62592;BME280;48659;41.622;2.276;2023-05-10T07:45:49;99935.32;;;16.06;61.41
62592;BME280;48659;41.622;2.276;2023-05-10T07:48:16;99940.53;;;15.81;60.82
62592;BME280;48659;41.622;2.276;2023-05-10T07:50:52;99936.88;;;16.31;59.49
62592;BME280;48659;41.622;2.276;2023-05-10T07:53:19;99933.23;;;16.30;58.97
62592;BME280;48659;41.622;2.276;2023-05-10T07:55:50;99926.50;;;16.85;57.70
62592;BME280;48659;41.622;2.276;2023-05-10T07:58:18;99921.93;;;17.75;54.37
62592;BME280;48659;41.622;2.276;2023-05-10T08:00:46;99924.25;;;17.75;55.61
62592;BME280;48659;41.622;2.276;2023-05-10T08:03:13;99928.20;;;17.01;55.89
62592;BME280;48659;41.622;2.276;2023-05-10T08:05:49;99931.31;;;15.93;59.46
62592;BME280;48659;41.622;2.276;2023-05-10T08:08:17;99927.88;;;17.79;54.78
62592;BME280;48659;41.622;2.276;2023-05-10T08:10:52;99930.46;;;18.09;53.25
62592;BME280;48659;41.622;2.276;2023-05-10T08:13:19;99926.99;;;18.63;51.74
62592;BME280;48659;41.622;2.276;2023-05-10T08:15:49;99928.61;;;18.83;51.30
62592;BME280;48659;41.622;2.276;2023-05-10T08:18:16;99931.86;;;18.73;50.15
62592;BME280;48659;41.622;2.276;2023-05-10T08:20:48;99932.90;;;18.87;50.19
62592;BME280;48659;41.622;2.276;2023-05-10T08:23:15;99928.77;;;18.56;50.46
62592;BME280;48659;41.622;2.276;2023-05-10T08:25:49;99927.83;;;18.51;50.30
62592;BME280;48659;41.622;2.276;2023-05-10T08:28:17;99922.92;;;17.77;52.36
62592;BME280;48659;41.622;2.276;2023-05-10T08:30:44;99919.67;;;19.43;48.10
62592;BME280;48659;41.622;2.276;2023-05-10T08:33:12;99922.52;;;19.52;48.27
62592;BME280;48659;41.622;2.276;2023-05-10T08:35:39;99920.89;;;19.50;48.00
62592;BME280;48659;41.622;2.276;2023-05-10T08:38:06;99914.84;;;19.92;46.81
62592;BME280;48659;41.622;2.276;2023-05-10T08:40:34;99914.37;;;20.52;45.63
62592;BME280;48659;41.622;2.276;2023-05-10T08:43:07;99912.25;;;20.53;44.11
62592;BME280;48659;41.622;2.276;2023-05-10T08:45:39;99912.56;;;21.03;43.84
62592;BME280;48659;41.622;2.276;2023-05-10T08:48:08;99910.52;;;19.45;45.73
62592;BME280;48659;41.622;2.276;2023-05-10T08:50:37;99915.73;;;18.58;48.27
62592;BME280;48659;41.622;2.276;2023-05-10T08:53:06;99913.87;;;19.60;45.76
62592;BME280;48659;41.622;2.276;2023-05-10T08:55:36;99907.85;;;20.45;45.69
62592;BME280;48659;41.622;2.276;2023-05-10T08:58:04;99908.79;;;20.47;44.83
62592;BME280;48659;41.622;2.276;2023-05-10T09:00:32;99907.11;;;21.00;43.19
62592;BME280;48659;41.622;2.276;2023-05-10T09:03:00;99905.79;;;20.16;44.06
62592;BME280;48659;41.622;2.276;2023-05-10T09:05:28;99902.62;;;21.27;42.36
62592;BME280;48659;41.622;2.276;2023-05-10T09:07:56;99901.48;;;20.63;43.55
62592;BME280;48659;41.622;2.276;2023-05-10T09:10:26;99908.32;;;19.16;45.93
62592;BME280;48659;41.622;2.276;2023-05-10T09:12:56;99903.70;;;19.11;45.84
62592;BME280;48659;41.622;2.276;2023-05-10T09:15:24;99904.10;;;18.98;45.56
62592;BME280;48659;41.622;2.276;2023-05-10T09:17:53;99910.40;;;20.97;42.82
62592;BME280;48659;41.622;2.276;2023-05-10T09:20:21;99907.78;;;19.69;43.63
62592;BME280;48659;41.622;2.276;2023-05-10T09:22:49;99902.50;;;21.48;40.61
62592;BME280;48659;41.622;2.276;2023-05-10T09:25:17;99899.01;;;21.50;42.00
62592;BME280;48659;41.622;2.276;2023-05-10T09:27:46;99901.54;;;21.79;39.90
62592;BME280;48659;41.622;2.276;2023-05-10T09:30:17;99902.33;;;19.88;43.56
62592;BME280;48659;41.622;2.276;2023-05-10T09:32:50;99899.25;;;21.88;40.66
62592;BME280;48659;41.622;2.276;2023-05-10T09:35:19;99895.27;;;21.61;38.36
62592;BME280;48659;41.622;2.276;2023-05-10T09:37:48;99893.35;;;22.41;37.80
62592;BME280;48659;41.622;2.276;2023-05-10T09:40:17;99892.12;;;21.18;39.26
62592;BME280;48659;41.622;2.276;2023-05-10T09:42:54;99890.09;;;21.73;38.78
62592;BME280;48659;41.622;2.276;2023-05-10T09:45:22;99883.89;;;21.65;38.47
62592;BME280;48659;41.622;2.276;2023-05-10T09:47:50;99887.45;;;20.37;41.13
62592;BME280;48659;41.622;2.276;2023-05-10T09:50:19;99889.32;;;19.98;41.07
62592;BME280;48659;41.622;2.276;2023-05-10T09:52:50;99895.06;;;20.32;42.08
62592;BME280;48659;41.622;2.276;2023-05-10T09:55:20;99886.89;;;21.86;39.85
62592;BME280;48659;41.622;2.276;2023-05-10T09:57:48;99887.61;;;22.43;39.80
62592;BME280;48659;41.622;2.276;2023-05-10T10:00:18;99889.27;;;22.03;39.80
62592;BME280;48659;41.622;2.276;2023-05-10T10:02:55;99887.61;;;21.22;40.85
62592;BME280;48659;41.622;2.276;2023-05-10T10:05:28;99885.17;;;22.47;39.05
62592;BME280;48659;41.622;2.276;2023-05-10T10:07:57;99881.65;;;22.48;39.80
62592;BME280;48659;41.622;2.276;2023-05-10T10:10:26;99883.46;;;22.52;39.86
62592;BME280;48659;41.622;2.276;2023-05-10T10:12:54;99882.26;;;21.99;39.96
62592;BME280;48659;41.622;2.276;2023-05-10T10:15:23;99882.38;;;22.93;39.51
62592;BME280;48659;41.622;2.276;2023-05-10T10:17:51;99881.60;;;21.98;39.96
62592;BME280;48659;41.622;2.276;2023-05-10T10:20:20;99883.20;;;21.55;41.40
62592;BME280;48659;41.622;2.276;2023-05-10T10:22:49;99885.91;;;19.30;45.88
62592;BME280;48659;41.622;2.276;2023-05-10T10:25:18;99885.61;;;20.56;43.76
62592;BME280;48659;41.622;2.276;2023-05-10T10:27:59;99887.06;;;20.93;43.57
62592;BME280;48659;41.622;2.276;2023-05-10T10:30:37;99884.91;;;20.59;43.49
62592;BME280;48659;41.622;2.276;2023-05-10T10:33:25;99884.06;;;19.57;44.87
62592;BME280;48659;41.622;2.276;2023-05-10T10:35:59;99883.77;;;21.70;40.76
62592;BME280;48659;41.622;2.276;2023-05-10T10:38:36;99886.03;;;19.58;43.90
62592;BME280;48659;41.622;2.276;2023-05-10T10:41:10;99885.19;;;19.42;43.38
62592;BME280;48659;41.622;2.276;2023-05-10T10:43:37;99883.47;;;19.85;43.33
62592;BME280;48659;41.622;2.276;2023-05-10T10:46:13;99883.05;;;20.78;43.30
62592;BME280;48659;41.622;2.276;2023-05-10T10:49:07;99882.71;;;21.77;40.34
62592;BME280;48659;41.622;2.276;2023-05-10T10:51:37;99877.43;;;22.64;37.82
62592;BME280;48659;41.622;2.276;2023-05-10T10:54:09;99880.91;;;20.83;39.35
62592;BME280;48659;41.622;2.276;2023-05-10T10:56:37;99880.01;;;21.20;39.25
62592;BME280;48659;41.622;2.276;2023-05-10T10:59:04;99885.59;;;20.37;41.27
62592;BME280;48659;41.622;2.276;2023-05-10T11:01:33;99883.66;;;18.83;42.84
62592;BME280;48659;41.622;2.276;2023-05-10T11:04:41;99882.97;;;19.09;42.09
62592;BME280;48659;41.622;2.276;2023-05-10T11:07:24;99879.48;;;20.67;39.81
62592;BME280;48659;41.622;2.276;2023-05-10T11:09:52;99874.65;;;20.30;40.81
62592;BME280;48659;41.622;2.276;2023-05-10T11:12:21;99878.08;;;18.48;44.05
62592;BME280;48659;41.622;2.276;2023-05-10T11:14:50;99879.59;;;18.50;44.53
62592;BME280;48659;41.622;2.276;2023-05-10T11:17:23;99877.04;;;18.85;43.24
62592;BME280;48659;41.622;2.276;2023-05-10T11:20:07;99871.77;;;19.23;43.06
62592;BME280;48659;41.622;2.276;2023-05-10T11:22:50;99874.81;;;20.68;40.95
62592;BME280;48659;41.622;2.276;2023-05-10T11:25:17;99876.69;;;19.06;42.51
62592;BME280;48659;41.622;2.276;2023-05-10T11:27:47;99874.00;;;20.15;41.72
62592;BME280;48659;41.622;2.276;2023-05-10T11:30:15;99874.84;;;19.55;41.92
62592;BME280;48659;41.622;2.276;2023-05-10T11:32:49;99871.87;;;20.43;40.71
62592;BME280;48659;41.622;2.276;2023-05-10T11:35:16;99867.64;;;20.73;40.31
62592;BME280;48659;41.622;2.276;2023-05-10T11:37:48;99860.06;;;19.58;42.80
62592;BME280;48659;41.622;2.276;2023-05-10T11:40:15;99860.34;;;21.25;40.19
62592;BME280;48659;41.622;2.276;2023-05-10T11:42:59;99865.68;;;21.37;39.65
62592;BME280;48659;41.622;2.276;2023-05-10T11:45:27;99870.22;;;20.78;40.46
62592;BME280;48659;41.622;2.276;2023-05-10T11:47:55;99872.69;;;20.09;42.12
62592;BME280;48659;41.622;2.276;2023-05-10T11:50:24;99873.90;;;20.21;41.65
62592;BME280;48659;41.622;2.276;2023-05-10T11:52:52;99870.89;;;19.64;43.03
62592;BME280;48659;41.622;2.276;2023-05-10T11:55:26;99879.13;;;20.02;42.61
62592;BME280;48659;41.622;2.276;2023-05-10T11:57:54;99880.79;;;19.12;44.51
62592;BME280;48659;41.622;2.276;2023-05-10T12:00:21;99874.28;;;20.20;43.08
62592;BME280;48659;41.622;2.276;2023-05-10T12:02:49;99876.54;;;19.72;44.03
62592;BME280;48659;41.622;2.276;2023-05-10T12:05:17;99887.99;;;18.13;47.54
62592;BME280;48659;41.622;2.276;2023-05-10T12:07:44;99885.00;;;18.45;47.14
62592;BME280;48659;41.622;2.276;2023-05-10T12:10:14;99880.73;;;18.66;47.52
62592;BME280;48659;41.622;2.276;2023-05-10T12:12:48;99877.98;;;18.55;46.68
62592;BME280;48659;41.622;2.276;2023-05-10T12:15:20;99883.13;;;18.80;46.43
62592;BME280;48659;41.622;2.276;2023-05-10T12:17:49;99883.18;;;19.82;44.21
62592;BME280;48659;41.622;2.276;2023-05-10T12:20:19;99885.52;;;18.30;45.53
62592;BME280;48659;41.622;2.276;2023-05-10T12:22:50;99891.13;;;17.58;46.71
62592;BME280;48659;41.622;2.276;2023-05-10T12:25:19;99892.96;;;18.20;46.18
62592;BME280;48659;41.622;2.276;2023-05-10T12:27:50;99893.21;;;18.35;46.48
62592;BME280;48659;41.622;2.276;2023-05-10T12:30:21;99899.34;;;18.38;46.24
62592;BME280;48659;41.622;2.276;2023-05-10T12:32:49;99900.05;;;18.76;45.33
62592;BME280;48659;41.622;2.276;2023-05-10T12:35:18;99899.61;;;19.15;44.22
62592;BME280;48659;41.622;2.276;2023-05-10T12:37:46;99904.78;;;19.13;44.61
62592;BME280;48659;41.622;2.276;2023-05-10T12:40:13;99908.47;;;17.74;47.36
62592;BME280;48659;41.622;2.276;2023-05-10T12:42:49;99909.74;;;18.59;46.27
62592;BME280;48659;41.622;2.276;2023-05-10T12:45:22;99906.80;;;18.06;47.13
62592;BME280;48659;41.622;2.276;2023-05-10T12:47:50;99910.71;;;18.32;45.87
62592;BME280;48659;41.622;2.276;2023-05-10T12:50:17;99916.54;;;18.31;46.02
62592;BME280;48659;41.622;2.276;2023-05-10T12:52:49;99908.93;;;19.04;44.81
62592;BME280;48659;41.622;2.276;2023-05-10T12:55:16;99910.76;;;17.30;48.44
62592;BME280;48659;41.622;2.276;2023-05-10T12:57:47;99917.55;;;17.45;49.59
62592;BME280;48659;41.622;2.276;2023-05-10T13:00:16;99910.55;;;17.18;49.80
62592;BME280;48659;41.622;2.276;2023-05-10T13:02:43;99919.40;;;17.24;49.43
62592;BME280;48659;41.622;2.276;2023-05-10T13:05:10;99920.31;;;17.46;49.61
62592;BME280;48659;41.622;2.276;2023-05-10T13:07:38;99920.52;;;16.52;51.39
62592;BME280;48659;41.622;2.276;2023-05-10T13:10:07;99913.60;;;17.25;50.34
62592;BME280;48659;41.622;2.276;2023-05-10T13:12:34;99908.00;;;17.41;49.40
62592;BME280;48659;41.622;2.276;2023-05-10T13:15:02;99913.89;;;17.96;48.77